Time;durP1;ratioP1;P1;durP2;ratioP2;P2;SDS_P1;SDS_P2;PMS_P1;PMS_P2;Temp;Humidity;BMP_temperature;BMP_pressure;BME280_temperature;BME280_humidity;BME280_pressure;Samples;Min_cycle;Max_cycle;Signal;HPM_P1;HPM_P2
2022/09/14 00:01:38;;;;;;;7.70;3.60;;;21.50;71.70;;;;;;5044725;28;20192;-73
2022/09/14 00:04:09;;;;;;;8.50;4.10;;;21.50;71.70;;;;;;5042757;28;20515;-70
2022/09/14 00:06:35;;;;;;;6.73;4.20;;;21.40;72.00;;;;;;5038566;28;20481;-71
2022/09/14 00:09:02;;;;;;;5.83;3.80;;;21.30;72.40;;;;;;5048133;28;20590;-71
2022/09/14 00:11:30;;;;;;;8.13;3.80;;;21.40;72.40;;;;;;5044092;28;20429;-71
2022/09/14 00:13:58;;;;;;;3.70;3.00;;;21.50;72.40;;;;;;5040860;28;20509;-70
2022/09/14 00:16:27;;;;;;;4.97;3.50;;;21.50;72.10;;;;;;5039148;28;21278;-70
2022/09/14 00:18:59;;;;;;;6.10;3.67;;;21.30;72.90;;;;;;5045325;28;21012;-70
2022/09/14 00:21:25;;;;;;;5.33;3.80;;;21.30;73.00;;;;;;5038810;28;20435;-71
2022/09/14 00:23:51;;;;;;;6.50;4.07;;;21.30;73.00;;;;;;5044315;28;20500;-71
2022/09/14 00:26:20;;;;;;;7.03;3.80;;;21.30;73.20;;;;;;5040203;28;20433;-71
2022/09/14 00:28:51;;;;;;;5.53;3.60;;;21.40;73.20;;;;;;5044713;28;20534;-71
2022/09/14 00:31:19;;;;;;;5.07;3.20;;;21.40;73.20;;;;;;5039554;28;20429;-71
2022/09/14 00:33:46;;;;;;;4.87;3.00;;;21.50;73.20;;;;;;5040227;28;20502;-70
2022/09/14 00:36:17;;;;;;;5.07;3.47;;;21.50;72.90;;;;;;5044233;28;20800;-71
2022/09/14 00:38:45;;;;;;;4.80;3.20;;;21.40;73.20;;;;;;5044869;28;20982;-71
2022/09/14 00:41:15;;;;;;;4.23;3.60;;;21.30;73.60;;;;;;5042913;28;20416;-71
2022/09/14 00:43:57;;;;;;;6.33;3.90;;;21.40;73.90;;;;;;5043615;28;20475;-71
2022/09/14 00:46:26;;;;;;;15.33;3.67;;;21.50;73.20;;;;;;5042247;28;20431;-71
2022/09/14 00:48:52;;;;;;;4.57;3.80;;;21.50;73.30;;;;;;5038358;28;20418;-71
2022/09/14 00:51:20;;;;;;;5.50;3.37;;;21.60;73.00;;;;;;5043737;28;20475;-71
2022/09/14 00:53:46;;;;;;;4.07;3.30;;;21.60;73.00;;;;;;5038711;28;20453;-70
2022/09/14 00:56:13;;;;;;;6.73;3.60;;;21.50;73.20;;;;;;5043306;28;20424;-71
2022/09/14 00:58:39;;;;;;;6.27;3.43;;;21.40;73.50;;;;;;5036899;28;20579;-72
2022/09/14 01:01:04;;;;;;;7.60;3.43;;;21.40;73.30;;;;;;5042632;28;20515;-73
2022/09/14 01:03:30;;;;;;;4.27;3.30;;;21.30;73.50;;;;;;5035307;28;20476;-71
2022/09/14 01:06:20;;;;;;;5.23;3.10;;;21.30;73.90;;;;;;5044904;28;20191;-72
2022/09/14 01:09:12;;;;;;;4.80;3.93;;;21.30;74.20;;;;;;5037562;28;20312;-72
2022/09/14 01:11:50;;;;;;;4.87;3.50;;;21.50;73.70;;;;;;5040931;28;20453;-71
2022/09/14 01:14:40;;;;;;;7.40;3.40;;;21.40;73.60;;;;;;5042295;28;20984;-72
2022/09/14 01:17:24;;;;;;;4.07;3.47;;;21.40;73.90;;;;;;5039595;28;20424;-70
2022/09/14 01:20:03;;;;;;;5.70;3.50;;;21.40;74.20;;;;;;5040490;28;20522;-71
2022/09/14 01:23:07;;;;;;;6.53;3.77;;;21.30;75.40;;;;;;5048355;28;20449;-71
2022/09/14 01:26:30;;;;;;;3.97;3.37;;;21.50;75.20;;;;;;5046994;28;20471;-71
2022/09/14 01:29:02;;;;;;;4.63;3.10;;;21.30;76.10;;;;;;4979729;28;20442;-71
2022/09/14 01:31:35;;;;;;;7.90;4.00;;;20.90;77.60;;;;;;5033900;28;20417;-72
2022/09/14 01:34:18;;;;;;;15.20;3.47;;;20.80;81.40;;;;;;5045763;28;20991;-71
2022/09/14 01:36:48;;;;;;;10.83;4.23;;;19.70;90.10;;;;;;5034419;28;20453;-73
2022/09/14 01:39:16;;;;;;;11.00;4.87;;;19.20;92.70;;;;;;5043370;28;20424;-72
2022/09/14 01:41:44;;;;;;;12.23;5.27;;;18.80;93.80;;;;;;5034215;28;20468;-72
2022/09/14 01:44:24;;;;;;;8.90;4.27;;;18.70;94.90;;;;;;5044232;28;20848;-71
2022/09/14 01:46:54;;;;;;;10.37;3.90;;;18.50;95.90;;;;;;5035607;28;20456;-71
2022/09/14 01:49:32;;;;;;;9.50;4.40;;;18.30;96.50;;;;;;5039968;28;20761;-71
2022/09/14 01:52:04;;;;;;;7.30;3.53;;;18.30;96.90;;;;;;5041110;28;20490;-71
2022/09/14 01:54:34;;;;;;;9.03;3.40;;;18.20;97.40;;;;;;5041261;28;20828;-72
2022/09/14 01:57:25;;;;;;;8.03;3.40;;;18.30;97.80;;;;;;5046761;28;20428;-72
2022/09/14 01:59:56;;;;;;;9.97;3.53;;;18.30;98.10;;;;;;5043671;28;20466;-72
2022/09/14 02:02:36;;;;;;;10.83;4.13;;;18.40;98.30;;;;;;5040695;28;20427;-72
2022/09/14 02:05:12;;;;;;;8.43;4.27;;;18.40;98.50;;;;;;5044620;28;20545;-73
2022/09/14 02:07:38;;;;;;;6.40;3.70;;;18.40;98.70;;;;;;5044987;28;21122;-72
2022/09/14 02:10:09;;;;;;;10.07;4.20;;;18.40;98.70;;;;;;5040267;28;20515;-72
2022/09/14 02:12:35;;;;;;;9.63;3.90;;;18.50;98.80;;;;;;5041388;28;20520;-71
2022/09/14 02:15:00;;;;;;;6.70;4.73;;;18.40;98.70;;;;;;5049099;28;20494;-72
2022/09/14 02:17:28;;;;;;;8.27;4.63;;;18.40;98.80;;;;;;5050054;28;20464;-73
2022/09/14 02:19:59;;;;;;;8.30;4.63;;;18.50;98.90;;;;;;5042903;28;20214;-72
2022/09/14 02:22:26;;;;;;;7.43;4.67;;;18.50;99.10;;;;;;5048702;28;20441;-73
2022/09/14 02:24:53;;;;;;;10.87;4.67;;;18.50;99.10;;;;;;5046673;28;20465;-72
2022/09/14 02:27:19;;;;;;;19.43;4.90;;;18.50;99.20;;;;;;5050178;28;20491;-73
2022/09/14 02:29:44;;;;;;;11.97;4.70;;;18.60;99.20;;;;;;5045044;28;20465;-73
2022/09/14 02:32:32;;;;;;;5.77;3.90;;;18.70;99.20;;;;;;5045636;28;20495;-72
2022/09/14 02:35:20;;;;;;;9.73;4.90;;;18.70;99.20;;;;;;5041023;28;20217;-73
2022/09/14 02:38:11;;;;;;;6.50;4.60;;;18.70;99.10;;;;;;5019415;28;20460;-72
2022/09/14 02:40:46;;;;;;;7.30;4.63;;;18.60;99.00;;;;;;5044202;28;20781;-73
2022/09/14 02:43:39;;;;;;;11.43;5.77;;;18.50;98.80;;;;;;5040487;28;20465;-72
2022/09/14 02:46:35;;;;;;;6.27;4.20;;;18.40;98.60;;;;;;5038329;28;20427;-72
2022/09/14 02:49:14;;;;;;;14.37;5.70;;;18.40;98.50;;;;;;5042100;28;20433;-71
2022/09/14 02:51:53;;;;;;;10.77;5.87;;;18.40;98.50;;;;;;5040514;28;20452;-71
2022/09/14 02:54:29;;;;;;;13.77;5.67;;;18.40;98.40;;;;;;5042974;28;20466;-72
2022/09/14 02:56:59;;;;;;;8.47;5.43;;;18.40;98.50;;;;;;5042108;28;20420;-73
2022/09/14 02:59:25;;;;;;;7.70;5.47;;;18.40;98.50;;;;;;5043948;28;20464;-71
2022/09/14 03:01:51;;;;;;;7.67;5.60;;;18.50;98.50;;;;;;5039893;28;20528;-72
2022/09/14 03:04:16;;;;;;;9.07;5.17;;;18.50;98.40;;;;;;5048135;28;20480;-71
2022/09/14 03:06:42;;;;;;;6.77;4.60;;;18.60;98.10;;;;;;5044121;28;20185;-72
2022/09/14 03:09:07;;;;;;;7.97;4.90;;;18.70;97.90;;;;;;5050013;28;20187;-72
2022/09/14 03:11:33;;;;;;;8.60;5.60;;;18.80;97.70;;;;;;5047451;28;20260;-71
2022/09/14 03:13:59;;;;;;;11.03;5.00;;;18.80;97.60;;;;;;5047492;28;20681;-71
2022/09/14 03:16:24;;;;;;;9.03;6.17;;;18.80;97.70;;;;;;5045559;28;20186;-70
2022/09/14 03:18:50;;;;;;;7.00;5.17;;;18.80;97.60;;;;;;5041551;28;20282;-72
2022/09/14 03:21:16;;;;;;;14.70;5.67;;;18.70;97.50;;;;;;5036604;28;20187;-72
2022/09/14 03:23:44;;;;;;;7.43;5.20;;;18.80;97.70;;;;;;5040848;28;20237;-72
2022/09/14 03:26:12;;;;;;;7.43;4.80;;;18.80;97.60;;;;;;5042853;28;20425;-72
2022/09/14 03:28:37;;;;;;;10.00;5.50;;;18.90;97.70;;;;;;5036784;28;20429;-72
2022/09/14 03:31:05;;;;;;;9.70;5.60;;;18.80;97.70;;;;;;5042804;28;20442;-72
2022/09/14 03:33:31;;;;;;;7.63;4.80;;;18.80;97.70;;;;;;5038337;28;20673;-71
2022/09/14 03:35:57;;;;;;;7.00;5.00;;;18.80;97.80;;;;;;5039863;28;20443;-71
2022/09/14 03:38:25;;;;;;;7.53;5.73;;;18.80;97.90;;;;;;5039445;28;20632;-71
2022/09/14 03:40:51;;;;;;;7.30;5.10;;;18.80;97.90;;;;;;5046468;28;20782;-70
2022/09/14 03:43:17;;;;;;;8.07;5.23;;;18.70;97.80;;;;;;5041821;28;20475;-70
2022/09/14 03:45:43;;;;;;;8.20;5.20;;;18.70;98.00;;;;;;5049034;28;20448;-71
2022/09/14 03:48:10;;;;;;;9.20;4.90;;;18.70;98.00;;;;;;5063525;28;20178;-71
2022/09/14 03:50:37;;;;;;;11.83;6.23;;;18.70;98.10;;;;;;5063928;28;20452;-72
2022/09/14 03:53:03;;;;;;;10.10;5.77;;;18.70;98.20;;;;;;5059390;28;20564;-72
2022/09/14 03:55:29;;;;;;;7.33;5.50;;;18.70;98.10;;;;;;5057000;28;20456;-71
2022/09/14 03:57:55;;;;;;;7.77;5.90;;;18.80;98.30;;;;;;5049652;28;20512;-71
2022/09/14 04:00:21;;;;;;;8.50;5.73;;;18.80;98.30;;;;;;5051777;28;20434;-72
2022/09/14 04:02:47;;;;;;;9.00;4.97;;;18.80;98.30;;;;;;5042492;28;20235;-70
2022/09/14 04:05:12;;;;;;;11.83;4.87;;;18.90;98.30;;;;;;5046186;28;21003;-71
2022/09/14 04:07:38;;;;;;;9.53;5.90;;;18.80;98.10;;;;;;5033861;28;20262;-71
2022/09/14 04:10:05;;;;;;;8.43;5.80;;;18.80;98.10;;;;;;5043654;28;20178;-71
2022/09/14 04:12:35;;;;;;;11.30;6.20;;;18.90;98.10;;;;;;5039484;28;20232;-71
2022/09/14 04:15:01;;;;;;;7.73;5.10;;;18.90;98.00;;;;;;5043118;28;20483;-71
2022/09/14 04:17:27;;;;;;;7.73;4.87;;;19.00;98.00;;;;;;5040338;28;20946;-71
2022/09/14 04:19:53;;;;;;;7.57;6.20;;;19.00;97.90;;;;;;5041499;28;20208;-72
2022/09/14 04:22:18;;;;;;;12.37;5.13;;;19.10;97.60;;;;;;5040435;28;20417;-71
2022/09/14 04:24:44;;;;;;;9.70;5.87;;;19.00;97.50;;;;;;5041048;28;20817;-72
2022/09/14 04:27:10;;;;;;;10.57;6.40;;;19.00;97.50;;;;;;5047756;28;20264;-71
2022/09/14 04:29:35;;;;;;;10.20;6.00;;;19.00;97.50;;;;;;5040461;28;20226;-71
2022/09/14 04:32:02;;;;;;;7.50;6.40;;;19.00;97.60;;;;;;5047071;28;20181;-72
2022/09/14 04:34:27;;;;;;;12.20;5.73;;;19.00;97.50;;;;;;5040093;28;20206;-71
2022/09/14 04:36:53;;;;;;;10.93;6.00;;;19.00;97.40;;;;;;5044327;28;20444;-70
2022/09/14 04:39:19;;;;;;;6.37;5.03;;;18.90;97.40;;;;;;5041308;28;20268;-71
2022/09/14 04:41:44;;;;;;;8.40;5.20;;;19.00;97.50;;;;;;5045604;28;20658;-71
2022/09/14 04:44:10;;;;;;;7.80;5.87;;;19.00;97.40;;;;;;5038849;28;20222;-71
2022/09/14 04:46:38;;;;;;;8.93;6.60;;;19.00;97.50;;;;;;5043177;28;20179;-71
2022/09/14 04:49:05;;;;;;;8.70;5.90;;;19.00;97.50;;;;;;5041873;28;20487;-72
2022/09/14 04:51:32;;;;;;;11.43;6.20;;;19.00;97.50;;;;;;5043145;28;20448;-72
2022/09/14 04:53:59;;;;;;;9.63;6.50;;;19.00;97.40;;;;;;5042320;28;20467;-72
2022/09/14 04:56:27;;;;;;;16.80;6.00;;;19.00;97.50;;;;;;5045879;28;20429;-73
2022/09/14 04:58:55;;;;;;;10.90;6.30;;;19.10;97.40;;;;;;5037121;28;21086;-71
2022/09/14 05:01:24;;;;;;;9.20;5.30;;;19.10;97.40;;;;;;5040830;28;20851;-72
2022/09/14 05:03:50;;;;;;;10.83;6.73;;;19.20;97.30;;;;;;5037996;28;20471;-72
2022/09/14 05:06:19;;;;;;;10.67;6.60;;;19.20;97.00;;;;;;5043579;28;20435;-72
2022/09/14 05:08:45;;;;;;;8.90;6.40;;;19.10;96.70;;;;;;5034604;28;20493;-71
2022/09/14 05:11:14;;;;;;;10.67;6.83;;;19.10;96.70;;;;;;5041010;28;20438;-73
2022/09/14 05:13:40;;;;;;;7.80;5.90;;;19.10;96.80;;;;;;5037078;28;20515;-72
2022/09/14 05:16:15;;;;;;;10.77;6.93;;;19.10;96.90;;;;;;5041317;28;20431;-72
2022/09/14 05:18:42;;;;;;;9.20;6.57;;;19.10;96.80;;;;;;5039153;28;20198;-71
2022/09/14 05:21:10;;;;;;;9.73;6.33;;;19.20;96.80;;;;;;5041154;28;20435;-72
2022/09/14 05:23:36;;;;;;;11.07;6.53;;;19.20;96.70;;;;;;5037019;28;20868;-71
2022/09/14 05:26:04;;;;;;;13.00;7.17;;;19.20;96.60;;;;;;5040884;28;20872;-73
2022/09/14 05:28:31;;;;;;;11.60;6.53;;;19.20;96.70;;;;;;5041639;28;20425;-73
2022/09/14 05:30:57;;;;;;;8.50;6.80;;;19.20;96.80;;;;;;5039807;28;20422;-72
2022/09/14 05:33:22;;;;;;;11.67;7.67;;;19.10;96.80;;;;;;5041163;28;20781;-75
2022/09/14 05:35:49;;;;;;;10.77;6.83;;;19.10;97.10;;;;;;5040748;28;20274;-73
2022/09/14 05:38:15;;;;;;;10.07;7.10;;;19.10;97.20;;;;;;5039833;28;20188;-72
2022/09/14 05:40:41;;;;;;;11.13;6.50;;;19.10;97.20;;;;;;5043671;28;20449;-73
2022/09/14 05:43:07;;;;;;;9.90;6.43;;;19.10;97.30;;;;;;5046600;28;20640;-73
2022/09/14 05:45:33;;;;;;;6.67;6.27;;;19.20;97.40;;;;;;5038380;28;20540;-72
2022/09/14 05:48:06;;;;;;;14.00;7.10;;;19.30;97.40;;;;;;5043131;28;20792;-74
2022/09/14 05:50:32;;;;;;;10.80;7.03;;;19.30;97.00;;;;;;5040372;28;20881;-71
2022/09/14 05:52:59;;;;;;;10.23;6.20;;;19.40;97.00;;;;;;5043349;28;20427;-71
2022/09/14 05:55:24;;;;;;;10.23;6.73;;;19.40;97.10;;;;;;5040640;28;20462;-71
2022/09/14 05:57:51;;;;;;;7.27;6.67;;;19.50;97.00;;;;;;5043141;28;20426;-70
2022/09/14 06:00:17;;;;;;;12.90;7.07;;;19.50;96.80;;;;;;5043900;28;20228;-74
2022/09/14 06:02:51;;;;;;;13.20;7.70;;;19.60;96.80;;;;;;5038138;28;20562;-72
2022/09/14 06:05:17;;;;;;;15.23;8.00;;;19.60;96.70;;;;;;5038852;28;20486;-72
2022/09/14 06:07:43;;;;;;;13.93;8.20;;;19.60;96.50;;;;;;5038114;28;20951;-73
2022/09/14 06:10:09;;;;;;;11.80;7.40;;;19.70;96.40;;;;;;5038724;28;20454;-72
2022/09/14 06:12:35;;;;;;;9.47;6.70;;;19.80;96.40;;;;;;5045608;28;20418;-73
2022/09/14 06:15:01;;;;;;;11.27;7.73;;;19.80;96.20;;;;;;5041980;28;20457;-75
2022/09/14 06:17:29;;;;;;;8.60;6.93;;;19.80;96.00;;;;;;5039518;28;20281;-71
2022/09/14 06:19:54;;;;;;;11.20;6.90;;;19.90;96.00;;;;;;5037342;28;20668;-73
2022/09/14 06:22:20;;;;;;;11.80;7.60;;;19.90;95.50;;;;;;5046201;28;20420;-73
2022/09/14 06:24:46;;;;;;;13.00;7.40;;;20.00;95.30;;;;;;5037974;28;20235;-72
2022/09/14 06:27:11;;;;;;;18.53;7.57;;;20.00;95.30;;;;;;5042436;28;20213;-72
2022/09/14 06:29:37;;;;;;;10.57;7.97;;;20.00;95.20;;;;;;5043800;28;20592;-73
2022/09/14 06:32:03;;;;;;;11.57;7.67;;;20.00;95.00;;;;;;5041687;28;20180;-73
2022/09/14 06:34:29;;;;;;;12.23;8.67;;;20.00;95.30;;;;;;5043129;28;20835;-72
2022/09/14 06:36:55;;;;;;;23.47;8.13;;;20.00;95.50;;;;;;5039742;28;21009;-74
2022/09/14 06:39:21;;;;;;;9.20;6.97;;;20.10;95.60;;;;;;5048188;28;20426;-75
2022/09/14 06:41:46;;;;;;;12.27;6.97;;;20.20;95.60;;;;;;5038265;28;20945;-74
2022/09/14 06:44:12;;;;;;;12.00;6.80;;;20.20;95.70;;;;;;5044174;28;20222;-72
2022/09/14 06:46:38;;;;;;;9.37;6.77;;;20.40;95.70;;;;;;5033185;28;20660;-71
2022/09/14 06:49:07;;;;;;;8.57;7.87;;;20.50;95.50;;;;;;5044801;28;20464;-73
2022/09/14 06:51:36;;;;;;;11.60;7.77;;;20.70;95.20;;;;;;5050129;28;20189;-72
2022/09/14 06:54:03;;;;;;;9.90;7.20;;;20.60;94.90;;;;;;5043622;28;20458;-72
2022/09/14 06:56:32;;;;;;;9.47;6.50;;;20.60;94.90;;;;;;5039408;28;20419;-73
2022/09/14 06:58:58;;;;;;;10.80;7.03;;;20.60;95.00;;;;;;5040852;28;20451;-73
2022/09/14 07:01:24;;;;;;;9.03;6.10;;;20.70;94.90;;;;;;5039652;28;20521;-74
2022/09/14 07:03:51;;;;;;;10.67;6.03;;;20.70;94.60;;;;;;5042449;28;21081;-73
2022/09/14 07:06:19;;;;;;;8.33;5.93;;;20.80;94.40;;;;;;5049641;28;20990;-74
2022/09/14 07:08:46;;;;;;;7.70;5.13;;;20.80;94.40;;;;;;5042581;28;20502;-73
2022/09/14 07:11:13;;;;;;;8.57;5.80;;;20.90;94.20;;;;;;5045692;28;20430;-72
2022/09/14 07:13:39;;;;;;;10.10;6.20;;;20.90;94.00;;;;;;5043553;28;20460;-72
2022/09/14 07:16:06;;;;;;;10.30;5.73;;;21.00;94.00;;;;;;5064843;28;20423;-75
2022/09/14 07:18:31;;;;;;;10.30;5.93;;;21.00;94.00;;;;;;5041543;28;20217;-74
2022/09/14 07:21:04;;;;;;;8.07;5.10;;;21.10;93.80;;;;;;5049669;28;20440;-69
2022/09/14 07:23:30;;;;;;;8.23;6.07;;;21.10;93.80;;;;;;5038459;28;20206;-70
2022/09/14 07:26:10;;;;;;;7.50;5.60;;;21.20;93.30;;;;;;5044045;28;20420;-71
2022/09/14 07:28:36;;;;;;;8.67;5.73;;;21.30;93.40;;;;;;5046733;28;20408;-71
2022/09/14 07:31:04;;;;;;;11.13;5.50;;;21.30;93.10;;;;;;5047537;28;20416;-70
2022/09/14 07:33:30;;;;;;;7.23;5.20;;;21.50;92.70;;;;;;5035326;28;20910;-69
2022/09/14 07:36:04;;;;;;;7.33;5.27;;;21.50;92.40;;;;;;5047328;28;20520;-70
2022/09/14 07:38:30;;;;;;;7.03;5.33;;;21.50;92.50;;;;;;5043760;28;20181;-70
2022/09/14 07:40:59;;;;;;;6.87;5.00;;;21.50;92.20;;;;;;5045072;28;20422;-69
2022/09/14 07:43:24;;;;;;;8.23;4.70;;;21.50;92.40;;;;;;5040063;28;20209;-72
2022/09/14 07:45:50;;;;;;;6.10;4.60;;;21.50;92.40;;;;;;5045501;28;20735;-71
2022/09/14 07:48:15;;;;;;;7.80;5.30;;;21.60;92.40;;;;;;5048016;28;20223;-70
2022/09/14 07:50:41;;;;;;;11.90;6.00;;;21.60;92.30;;;;;;5045154;28;20184;-71
2022/09/14 07:53:06;;;;;;;8.80;4.83;;;21.70;92.10;;;;;;5047649;28;20190;-72
2022/09/14 07:55:32;;;;;;;10.57;5.93;;;21.80;91.70;;;;;;5050515;28;20302;-71
2022/09/14 07:57:58;;;;;;;9.33;5.73;;;21.90;91.40;;;;;;5047492;28;20709;-71
2022/09/14 08:00:24;;;;;;;7.33;4.83;;;21.90;91.40;;;;;;5051882;28;20218;-70
2022/09/14 08:02:54;;;;;;;8.90;5.33;;;21.90;91.30;;;;;;5045994;28;20214;-69
2022/09/14 08:05:20;;;;;;;6.07;4.70;;;22.00;91.50;;;;;;5043461;28;20457;-70
2022/09/14 08:07:46;;;;;;;7.97;5.10;;;22.10;91.00;;;;;;5047372;28;20495;-70
2022/09/14 08:10:12;;;;;;;6.43;5.23;;;22.20;90.20;;;;;;5040626;28;20474;-72
2022/09/14 08:12:38;;;;;;;6.57;6.20;;;22.30;90.00;;;;;;5040394;28;20233;-70
2022/09/14 08:15:04;;;;;;;7.63;4.93;;;22.50;89.90;;;;;;5039136;28;20468;-70
2022/09/14 08:17:29;;;;;;;10.63;5.70;;;22.60;89.60;;;;;;5044200;28;20184;-69
2022/09/14 08:19:55;;;;;;;5.63;4.70;;;22.70;89.30;;;;;;5045877;28;20457;-70
2022/09/14 08:22:20;;;;;;;5.70;4.70;;;22.80;88.60;;;;;;5042228;28;20270;-71
2022/09/14 08:24:46;;;;;;;7.50;4.80;;;22.80;88.10;;;;;;5035450;28;20243;-72
2022/09/14 08:27:12;;;;;;;8.10;4.73;;;22.90;87.80;;;;;;5044191;28;20187;-72
2022/09/14 08:29:38;;;;;;;6.57;4.80;;;22.90;87.70;;;;;;5037475;28;21039;-71
2022/09/14 08:32:04;;;;;;;8.40;5.50;;;23.00;87.60;;;;;;5046429;28;20283;-71
2022/09/14 08:34:30;;;;;;;10.03;5.73;;;23.20;87.00;;;;;;5035580;28;20544;-71
2022/09/14 08:36:55;;;;;;;5.70;4.57;;;23.30;85.90;;;;;;5045144;28;20195;-71
2022/09/14 08:39:21;;;;;;;8.07;4.60;;;23.30;85.70;;;;;;5035827;28;20580;-70
2022/09/14 08:41:53;;;;;;;10.97;5.00;;;23.40;85.70;;;;;;5049942;28;20188;-70
2022/09/14 08:44:24;;;;;;;7.03;4.77;;;23.40;85.70;;;;;;5047272;28;20579;-70
2022/09/14 08:47:03;;;;;;;7.80;4.70;;;23.30;85.60;;;;;;5047403;28;20536;-70
2022/09/14 08:49:50;;;;;;;11.07;5.00;;;23.20;86.20;;;;;;5044585;28;20437;-70
2022/09/14 08:52:41;;;;;;;6.27;4.37;;;23.30;86.00;;;;;;5041825;28;20604;-69
2022/09/14 08:55:34;;;;;;;6.23;4.17;;;23.30;86.30;;;;;;5046476;28;20890;-70
2022/09/14 08:58:08;;;;;;;6.77;4.23;;;23.40;85.30;;;;;;5040649;28;20462;-70
2022/09/14 09:01:00;;;;;;;6.20;4.37;;;23.50;84.60;;;;;;5045195;28;20433;-72
2022/09/14 09:03:37;;;;;;;4.93;4.13;;;23.60;84.10;;;;;;5067563;28;20543;-71
2022/09/14 09:06:34;;;;;;;8.17;4.47;;;23.70;83.70;;;;;;5048077;28;20917;-73
2022/09/14 09:09:38;;;;;;;7.83;3.93;;;23.70;83.30;;;;;;5045540;28;20436;-70
2022/09/14 09:12:05;;;;;;;12.60;4.30;;;23.60;83.70;;;;;;5040545;28;20427;-71
2022/09/14 09:14:35;;;;;;;6.77;4.50;;;23.70;83.80;;;;;;5047248;28;20468;-69
2022/09/14 09:17:16;;;;;;;7.07;4.70;;;23.70;83.70;;;;;;5043699;28;20540;-70
2022/09/14 09:20:07;;;;;;;8.80;4.40;;;23.80;83.30;;;;;;5046307;28;20454;-71
2022/09/14 09:22:41;;;;;;;5.70;4.00;;;24.00;81.20;;;;;;5038798;28;20529;-70
2022/09/14 09:25:22;;;;;;;8.67;4.47;;;24.10;81.10;;;;;;5040197;28;20464;-70
2022/09/14 09:27:48;;;;;;;6.17;4.30;;;24.20;80.60;;;;;;5045427;28;20456;-71
2022/09/14 09:30:15;;;;;;;9.50;3.93;;;24.30;79.90;;;;;;5037996;28;20419;-71
2022/09/14 09:32:41;;;;;;;6.07;4.53;;;24.40;79.70;;;;;;5043418;28;20434;-70
2022/09/14 09:35:12;;;;;;;5.47;3.73;;;24.40;79.90;;;;;;5042204;28;20461;-70
2022/09/14 09:37:39;;;;;;;10.40;4.43;;;24.60;79.50;;;;;;5041353;28;20439;-70
2022/09/14 09:40:17;;;;;;;13.07;4.73;;;24.80;78.60;;;;;;5042453;28;20431;-71
2022/09/14 09:43:07;;;;;;;6.00;4.37;;;24.80;77.60;;;;;;5046005;28;20757;-72
2022/09/14 09:45:58;;;;;;;10.30;4.23;;;24.90;77.60;;;;;;5042632;28;20879;-74
2022/09/14 09:48:42;;;;;;;5.77;4.07;;;24.90;76.70;;;;;;5034599;28;21759;-73
2022/09/14 09:51:26;;;;;;;8.67;3.93;;;24.90;76.50;;;;;;5046232;28;20451;-70
2022/09/14 09:53:55;;;;;;;7.83;4.10;;;25.00;76.70;;;;;;5041403;28;20565;-73
2022/09/14 09:56:50;;;;;;;4.90;3.70;;;25.10;75.70;;;;;;5047002;28;20420;-71
2022/09/14 09:59:31;;;;;;;5.37;3.93;;;25.20;75.70;;;;;;5040111;28;20428;-70
2022/09/14 10:02:27;;;;;;;9.30;3.67;;;25.20;75.50;;;;;;5043269;28;20819;-72
2022/09/14 10:05:06;;;;;;;6.00;4.03;;;25.30;74.20;;;;;;5040704;28;20491;-73
2022/09/14 10:07:35;;;;;;;5.13;3.33;;;25.50;73.50;;;;;;5037255;28;20416;-71
2022/09/14 10:10:08;;;;;;;8.73;4.60;;;25.50;73.60;;;;;;5041279;28;20503;-70
2022/09/14 10:12:35;;;;;;;8.30;4.50;;;25.50;73.50;;;;;;5038451;28;20782;-71
2022/09/14 10:15:04;;;;;;;4.40;3.90;;;25.50;73.30;;;;;;5041751;28;20574;-72
2022/09/14 10:17:30;;;;;;;7.30;4.30;;;25.70;73.30;;;;;;5040324;28;20417;-73
2022/09/14 10:19:57;;;;;;;6.33;3.93;;;25.80;72.30;;;;;;5044872;28;20897;-73
2022/09/14 10:22:31;;;;;;;8.27;4.03;;;25.80;71.80;;;;;;5037258;28;20182;-71
2022/09/14 10:25:19;;;;;;;7.73;4.27;;;25.80;72.60;;;;;;5042684;28;20452;-70
2022/09/14 10:28:11;;;;;;;7.70;4.13;;;25.80;72.10;;;;;;5037649;28;20414;-71
2022/09/14 10:30:49;;;;;;;5.87;3.97;;;25.70;71.60;;;;;;4971212;28;20782;-70
2022/09/14 10:33:17;;;;;;;8.87;4.23;;;25.70;71.60;;;;;;4961245;28;20425;-72
2022/09/14 10:35:48;;;;;;;4.60;3.70;;;25.90;70.80;;;;;;4968119;28;20478;-70
2022/09/14 10:38:34;;;;;;;5.53;3.80;;;26.00;70.40;;;;;;4966109;28;20432;-70
2022/09/14 10:41:21;;;;;;;4.60;3.73;;;25.90;70.10;;;;;;4971466;28;20439;-70
2022/09/14 10:44:22;;;;;;;7.03;3.53;;;25.90;70.80;;;;;;4974838;28;20516;-73
2022/09/14 10:47:18;;;;;;;5.60;3.77;;;26.10;69.70;;;;;;4969348;28;20447;-70
2022/09/14 10:50:10;;;;;;;11.00;4.93;;;26.20;68.80;;;;;;4971527;28;20521;-71
2022/09/14 10:52:42;;;;;;;7.70;4.00;;;26.40;68.80;;;;;;4968509;28;21092;-71
2022/09/14 10:55:35;;;;;;;6.97;3.67;;;26.30;68.00;;;;;;4968111;28;20467;-73
2022/09/14 10:58:26;;;;;;;6.40;3.60;;;26.20;67.90;;;;;;4974882;28;20417;-71
2022/09/14 11:01:35;;;;;;;9.50;3.53;;;26.10;68.20;;;;;;4969560;28;20793;-70
2022/09/14 11:04:38;;;;;;;5.40;3.77;;;26.40;67.70;;;;;;4970323;28;20701;-73
2022/09/14 11:07:13;;;;;;;6.63;4.30;;;26.50;67.70;;;;;;4997508;28;20432;-71
2022/09/14 11:09:56;;;;;;;4.53;3.90;;;26.50;67.50;;;;;;5036473;28;20429;-71
2022/09/14 11:12:43;;;;;;;4.40;3.40;;;26.50;68.00;;;;;;5042118;28;20444;-70
2022/09/14 11:15:25;;;;;;;5.27;4.33;;;26.70;67.50;;;;;;5036311;28;20457;-71
2022/09/14 11:18:07;;;;;;;8.07;3.77;;;26.80;66.70;;;;;;5041049;28;20461;-71
2022/09/14 11:20:51;;;;;;;6.27;4.10;;;26.80;67.30;;;;;;5049731;28;20535;-71
2022/09/14 11:23:25;;;;;;;7.90;3.50;;;27.20;66.70;;;;;;5047142;28;20501;-71
2022/09/14 11:25:59;;;;;;;7.50;4.07;;;27.50;65.60;;;;;;5044408;28;20991;-73
2022/09/14 11:28:31;;;;;;;7.17;4.10;;;27.80;65.70;;;;;;5042619;28;20434;-73
2022/09/14 11:31:06;;;;;;;8.57;3.97;;;27.90;64.70;;;;;;5045730;28;20424;-71
2022/09/14 11:33:34;;;;;;;4.60;3.50;;;28.20;63.90;;;;;;5043126;28;20419;-72
2022/09/14 11:36:22;;;;;;;5.50;3.40;;;28.50;63.20;;;;;;5045558;28;20510;-71
2022/09/14 11:38:53;;;;;;;4.83;3.70;;;28.40;61.90;;;;;;5037155;28;20429;-71
2022/09/14 11:41:31;;;;;;;6.57;4.33;;;28.40;63.10;;;;;;5043594;28;20773;-73
2022/09/14 11:44:04;;;;;;;6.40;3.53;;;28.70;62.80;;;;;;5042385;28;21273;-71
2022/09/14 11:46:35;;;;;;;7.07;3.40;;;28.90;61.60;;;;;;5047317;28;20824;-71
2022/09/14 11:49:09;;;;;;;6.73;4.00;;;28.90;62.20;;;;;;5056058;28;20426;-71
2022/09/14 11:51:40;;;;;;;5.30;2.90;;;28.80;61.70;;;;;;5054760;28;20802;-73
2022/09/14 11:54:17;;;;;;;9.10;3.73;;;28.90;61.70;;;;;;5058723;28;20462;-74
2022/09/14 11:56:50;;;;;;;5.37;3.50;;;29.00;59.60;;;;;;5040255;28;20464;-72
2022/09/14 11:59:34;;;;;;;4.20;2.90;;;29.00;59.90;;;;;;5047982;28;20458;-72
2022/09/14 12:02:21;;;;;;;4.67;3.10;;;28.20;60.40;;;;;;5043543;28;20442;-70
2022/09/14 12:05:05;;;;;;;10.10;2.97;;;27.70;62.30;;;;;;5042310;28;20483;-70
2022/09/14 12:07:45;;;;;;;5.93;3.40;;;27.50;62.80;;;;;;5050873;28;20419;-70
2022/09/14 12:10:14;;;;;;;6.43;3.53;;;27.30;63.40;;;;;;5041032;28;20925;-71
2022/09/14 12:12:55;;;;;;;5.40;3.30;;;27.00;64.50;;;;;;5047993;28;20431;-72
2022/09/14 12:15:34;;;;;;;4.20;3.63;;;26.90;65.00;;;;;;5042124;28;20457;-71
2022/09/14 12:18:00;;;;;;;5.80;3.70;;;26.70;65.70;;;;;;5048342;28;20846;-70
2022/09/14 12:20:41;;;;;;;4.50;3.40;;;26.80;66.00;;;;;;5043041;28;20427;-70
2022/09/14 12:23:28;;;;;;;6.27;3.70;;;26.70;66.40;;;;;;5039259;28;20296;-70
2022/09/14 12:26:05;;;;;;;5.97;3.73;;;26.60;66.60;;;;;;5041836;28;20959;-72
2022/09/14 12:28:36;;;;;;;5.73;3.40;;;26.60;66.90;;;;;;5037332;28;20933;-71
2022/09/14 12:31:02;;;;;;;9.13;3.73;;;26.50;67.20;;;;;;5041105;28;20548;-72
2022/09/14 12:33:31;;;;;;;5.10;3.67;;;26.40;67.30;;;;;;5036018;28;20514;-71
2022/09/14 12:35:58;;;;;;;6.00;3.67;;;26.30;67.50;;;;;;5044932;28;20219;-71
2022/09/14 12:38:29;;;;;;;5.97;4.00;;;26.20;68.60;;;;;;5040856;28;20433;-71
2022/09/14 12:40:59;;;;;;;6.43;3.77;;;26.00;69.90;;;;;;5044131;28;20959;-72
2022/09/14 12:43:33;;;;;;;10.97;4.20;;;25.70;71.40;;;;;;5041201;28;20461;-73
2022/09/14 12:46:04;;;;;;;6.83;3.40;;;25.40;72.90;;;;;;5044823;28;22138;-72
2022/09/14 12:48:48;;;;;;;8.47;3.87;;;25.20;72.90;;;;;;5038098;28;20894;-71
2022/09/14 12:51:31;;;;;;;7.40;3.60;;;24.60;74.90;;;;;;5045286;28;20991;-70
2022/09/14 12:54:09;;;;;;;10.07;4.40;;;24.10;77.30;;;;;;5045026;28;20826;-72
2022/09/14 12:56:55;;;;;;;11.93;3.87;;;23.60;80.00;;;;;;5040736;28;21039;-70
2022/09/14 12:59:35;;;;;;;5.10;4.03;;;23.00;81.50;;;;;;5041889;28;20426;-71
2022/09/14 13:02:16;;;;;;;5.87;3.83;;;22.40;85.00;;;;;;5040335;28;20514;-71
2022/09/14 13:04:44;;;;;;;8.77;4.53;;;22.00;87.10;;;;;;5039672;28;20482;-70
2022/09/14 13:07:18;;;;;;;8.30;4.37;;;21.60;89.50;;;;;;5042215;28;20936;-71
2022/09/14 13:09:55;;;;;;;6.50;4.50;;;21.40;91.00;;;;;;5042766;28;20422;-71